sensor_id;sensor_type;location;lat;lon;timestamp;temperature;humidity
32322;DHT22;61553;48.994;8.940;2023-05-19T00:01:58;10.40;97.80
32322;DHT22;61553;48.994;8.940;2023-05-19T00:04:30;10.20;98.60
32322;DHT22;61553;48.994;8.940;2023-05-19T00:06:58;10.10;99.90
32322;DHT22;61553;48.994;8.940;2023-05-19T00:09:25;10.10;99.90
32322;DHT22;61553;48.994;8.940;2023-05-19T00:11:50;10.00;99.90
32322;DHT22;61553;48.994;8.940;2023-05-19T00:14:16;9.90;99.90
32322;DHT22;61553;48.994;8.940;2023-05-19T00:16:42;9.90;99.90
32322;DHT22;61553;48.994;8.940;2023-05-19T00:19:08;9.80;99.90
32322;DHT22;61553;48.994;8.940;2023-05-19T00:21:34;9.70;99.90
32322;DHT22;61553;48.994;8.940;2023-05-19T00:24:01;9.60;99.90
32322;DHT22;61553;48.994;8.940;2023-05-19T00:26:27;9.60;99.90
32322;DHT22;61553;48.994;8.940;2023-05-19T00:28:53;9.60;99.90
32322;DHT22;61553;48.994;8.940;2023-05-19T00:31:18;9.70;99.90
32322;DHT22;61553;48.994;8.940;2023-05-19T00:33:44;9.60;99.90
32322;DHT22;61553;48.994;8.940;2023-05-19T00:36:10;9.50;99.90
32322;DHT22;61553;48.994;8.940;2023-05-19T00:38:36;9.40;99.90
32322;DHT22;61553;48.994;8.940;2023-05-19T00:41:03;9.30;99.90
32322;DHT22;61553;48.994;8.940;2023-05-19T00:43:29;9.20;99.90
32322;DHT22;61553;48.994;8.940;2023-05-19T00:45:56;9.10;99.90
32322;DHT22;61553;48.994;8.940;2023-05-19T00:48:21;9.10;99.90
32322;DHT22;61553;48.994;8.940;2023-05-19T00:50:48;9.10;99.90
32322;DHT22;61553;48.994;8.940;2023-05-19T00:53:16;9.00;99.90
32322;DHT22;61553;48.994;8.940;2023-05-19T00:55:42;9.00;99.90
32322;DHT22;61553;48.994;8.940;2023-05-19T00:58:09;8.90;99.90
32322;DHT22;61553;48.994;8.940;2023-05-19T01:00:36;8.90;99.90
32322;DHT22;61553;48.994;8.940;2023-05-19T01:03:04;8.90;99.90
32322;DHT22;61553;48.994;8.940;2023-05-19T01:05:39;8.90;99.90
32322;DHT22;61553;48.994;8.940;2023-05-19T01:08:07;8.90;99.90
32322;DHT22;61553;48.994;8.940;2023-05-19T01:10:33;8.80;99.90
32322;DHT22;61553;48.994;8.940;2023-05-19T01:12:59;8.80;99.90
32322;DHT22;61553;48.994;8.940;2023-05-19T01:15:26;8.80;99.90
32322;DHT22;61553;48.994;8.940;2023-05-19T01:18:07;8.70;99.90
32322;DHT22;61553;48.994;8.940;2023-05-19T01:20:41;8.60;99.90
32322;DHT22;61553;48.994;8.940;2023-05-19T01:23:22;8.50;99.90
32322;DHT22;61553;48.994;8.940;2023-05-19T01:28:58;8.30;99.90
32322;DHT22;61553;48.994;8.940;2023-05-19T01:31:27;8.30;99.90
32322;DHT22;61553;48.994;8.940;2023-05-19T01:33:53;8.20;99.90
32322;DHT22;61553;48.994;8.940;2023-05-19T01:36:21;8.30;99.90
32322;DHT22;61553;48.994;8.940;2023-05-19T01:38:51;8.20;99.90
32322;DHT22;61553;48.994;8.940;2023-05-19T01:41:20;8.30;99.90
32322;DHT22;61553;48.994;8.940;2023-05-19T01:43:47;8.30;99.90
32322;DHT22;61553;48.994;8.940;2023-05-19T01:46:14;8.30;99.90
32322;DHT22;61553;48.994;8.940;2023-05-19T01:48:41;8.30;99.90
32322;DHT22;61553;48.994;8.940;2023-05-19T01:51:07;8.30;99.90
32322;DHT22;61553;48.994;8.940;2023-05-19T01:53:33;8.30;99.90
32322;DHT22;61553;48.994;8.940;2023-05-19T01:55:58;8.40;99.90
32322;DHT22;61553;48.994;8.940;2023-05-19T02:07:12;8.40;99.90
32322;DHT22;61553;48.994;8.940;2023-05-19T02:09:43;8.50;99.90
32322;DHT22;61553;48.994;8.940;2023-05-19T02:12:28;8.40;99.90
32322;DHT22;61553;48.994;8.940;2023-05-19T02:15:02;8.40;99.90
32322;DHT22;61553;48.994;8.940;2023-05-19T02:17:29;8.30;99.90
32322;DHT22;61553;48.994;8.940;2023-05-19T02:19:58;8.30;99.90
32322;DHT22;61553;48.994;8.940;2023-05-19T02:22:24;8.20;99.90
32322;DHT22;61553;48.994;8.940;2023-05-19T02:24:49;8.20;99.90
32322;DHT22;61553;48.994;8.940;2023-05-19T02:27:16;8.20;99.90
32322;DHT22;61553;48.994;8.940;2023-05-19T02:29:42;8.20;99.90
32322;DHT22;61553;48.994;8.940;2023-05-19T02:32:08;8.20;99.90
32322;DHT22;61553;48.994;8.940;2023-05-19T02:34:33;8.20;99.90
32322;DHT22;61553;48.994;8.940;2023-05-19T02:36:59;8.20;99.90
32322;DHT22;61553;48.994;8.940;2023-05-19T02:39:25;8.30;99.90
32322;DHT22;61553;48.994;8.940;2023-05-19T02:41:53;8.40;99.90
32322;DHT22;61553;48.994;8.940;2023-05-19T02:44:19;8.50;99.90
32322;DHT22;61553;48.994;8.940;2023-05-19T02:46:44;8.50;99.90
32322;DHT22;61553;48.994;8.940;2023-05-19T02:49:10;8.50;99.90
32322;DHT22;61553;48.994;8.940;2023-05-19T02:51:36;8.60;99.90
32322;DHT22;61553;48.994;8.940;2023-05-19T02:54:01;8.70;99.90
32322;DHT22;61553;48.994;8.940;2023-05-19T02:56:27;8.80;99.90
32322;DHT22;61553;48.994;8.940;2023-05-19T02:58:52;8.70;99.90
32322;DHT22;61553;48.994;8.940;2023-05-19T03:01:18;8.80;99.90
32322;DHT22;61553;48.994;8.940;2023-05-19T03:03:45;8.80;99.90
32322;DHT22;61553;48.994;8.940;2023-05-19T03:06:11;8.80;99.90
32322;DHT22;61553;48.994;8.940;2023-05-19T03:08:37;8.80;99.90
32322;DHT22;61553;48.994;8.940;2023-05-19T03:11:03;8.80;99.90
32322;DHT22;61553;48.994;8.940;2023-05-19T03:13:28;8.70;99.90
32322;DHT22;61553;48.994;8.940;2023-05-19T03:15:54;8.70;99.90
32322;DHT22;61553;48.994;8.940;2023-05-19T03:18:22;8.60;99.90
32322;DHT22;61553;48.994;8.940;2023-05-19T03:20:49;8.50;99.90
32322;DHT22;61553;48.994;8.940;2023-05-19T03:23:14;8.50;99.90
32322;DHT22;61553;48.994;8.940;2023-05-19T03:25:40;8.40;99.90
32322;DHT22;61553;48.994;8.940;2023-05-19T03:28:06;8.30;99.90
32322;DHT22;61553;48.994;8.940;2023-05-19T03:30:31;8.20;99.90
32322;DHT22;61553;48.994;8.940;2023-05-19T03:32:57;8.20;99.90
32322;DHT22;61553;48.994;8.940;2023-05-19T03:35:23;8.10;99.90
32322;DHT22;61553;48.994;8.940;2023-05-19T03:37:48;8.10;99.90
32322;DHT22;61553;48.994;8.940;2023-05-19T03:40:14;8.00;99.90
32322;DHT22;61553;48.994;8.940;2023-05-19T03:42:40;8.00;99.90
32322;DHT22;61553;48.994;8.940;2023-05-19T03:45:06;7.90;99.90
32322;DHT22;61553;48.994;8.940;2023-05-19T03:47:31;7.90;99.90
32322;DHT22;61553;48.994;8.940;2023-05-19T03:49:57;7.90;99.90
32322;DHT22;61553;48.994;8.940;2023-05-19T03:52:23;7.90;99.90
32322;DHT22;61553;48.994;8.940;2023-05-19T03:54:48;7.80;99.90
32322;DHT22;61553;48.994;8.940;2023-05-19T03:57:14;7.90;99.90
32322;DHT22;61553;48.994;8.940;2023-05-19T03:59:40;7.80;99.90
32322;DHT22;61553;48.994;8.940;2023-05-19T04:02:06;7.80;99.90
32322;DHT22;61553;48.994;8.940;2023-05-19T04:04:32;7.80;99.90
32322;DHT22;61553;48.994;8.940;2023-05-19T04:06:57;7.80;99.90
32322;DHT22;61553;48.994;8.940;2023-05-19T04:09:23;7.80;99.90
32322;DHT22;61553;48.994;8.940;2023-05-19T04:11:49;7.80;99.90
32322;DHT22;61553;48.994;8.940;2023-05-19T04:14:15;7.90;99.90
32322;DHT22;61553;48.994;8.940;2023-05-19T04:16:40;7.90;99.90
32322;DHT22;61553;48.994;8.940;2023-05-19T04:19:06;7.90;99.90
32322;DHT22;61553;48.994;8.940;2023-05-19T04:21:32;8.00;99.90
32322;DHT22;61553;48.994;8.940;2023-05-19T04:23:58;8.10;99.90
32322;DHT22;61553;48.994;8.940;2023-05-19T04:26:25;8.20;99.90
32322;DHT22;61553;48.994;8.940;2023-05-19T04:28:51;8.30;99.90
32322;DHT22;61553;48.994;8.940;2023-05-19T04:31:18;8.40;99.90
32322;DHT22;61553;48.994;8.940;2023-05-19T04:33:46;8.50;99.90
32322;DHT22;61553;48.994;8.940;2023-05-19T04:36:12;8.60;99.90
32322;DHT22;61553;48.994;8.940;2023-05-19T04:38:38;8.70;99.90
32322;DHT22;61553;48.994;8.940;2023-05-19T04:41:05;8.80;99.90
32322;DHT22;61553;48.994;8.940;2023-05-19T04:43:30;8.90;99.90
32322;DHT22;61553;48.994;8.940;2023-05-19T04:45:56;9.10;99.90
32322;DHT22;61553;48.994;8.940;2023-05-19T04:48:22;9.20;99.90
32322;DHT22;61553;48.994;8.940;2023-05-19T04:50:49;9.40;99.90
32322;DHT22;61553;48.994;8.940;2023-05-19T04:53:16;9.60;99.90
32322;DHT22;61553;48.994;8.940;2023-05-19T04:55:42;9.80;99.90
32322;DHT22;61553;48.994;8.940;2023-05-19T04:58:08;10.00;99.90
32322;DHT22;61553;48.994;8.940;2023-05-19T05:00:35;10.10;99.90
32322;DHT22;61553;48.994;8.940;2023-05-19T05:03:01;10.20;99.90
32322;DHT22;61553;48.994;8.940;2023-05-19T05:05:31;10.30;99.90
32322;DHT22;61553;48.994;8.940;2023-05-19T05:07:57;10.50;99.90
32322;DHT22;61553;48.994;8.940;2023-05-19T05:10:23;10.60;99.90
32322;DHT22;61553;48.994;8.940;2023-05-19T05:12:49;10.80;99.90
32322;DHT22;61553;48.994;8.940;2023-05-19T05:15:15;11.00;99.90
32322;DHT22;61553;48.994;8.940;2023-05-19T05:17:40;11.40;99.90
32322;DHT22;61553;48.994;8.940;2023-05-19T05:20:07;11.70;99.90
32322;DHT22;61553;48.994;8.940;2023-05-19T05:22:33;12.00;99.90
32322;DHT22;61553;48.994;8.940;2023-05-19T05:24:59;12.20;99.90
32322;DHT22;61553;48.994;8.940;2023-05-19T05:27:25;12.30;99.90
32322;DHT22;61553;48.994;8.940;2023-05-19T05:29:52;12.30;99.90
32322;DHT22;61553;48.994;8.940;2023-05-19T05:32:17;12.40;99.90
32322;DHT22;61553;48.994;8.940;2023-05-19T05:34:43;12.40;99.90
32322;DHT22;61553;48.994;8.940;2023-05-19T05:37:10;12.50;99.90
32322;DHT22;61553;48.994;8.940;2023-05-19T05:39:36;12.80;99.90
32322;DHT22;61553;48.994;8.940;2023-05-19T05:42:02;12.90;99.90
32322;DHT22;61553;48.994;8.940;2023-05-19T05:44:27;13.30;99.90
32322;DHT22;61553;48.994;8.940;2023-05-19T05:46:53;13.50;99.90
32322;DHT22;61553;48.994;8.940;2023-05-19T05:49:19;13.80;99.90
32322;DHT22;61553;48.994;8.940;2023-05-19T05:51:45;14.00;99.90
32322;DHT22;61553;48.994;8.940;2023-05-19T05:54:11;14.30;99.40
32322;DHT22;61553;48.994;8.940;2023-05-19T05:56:37;14.80;98.50
32322;DHT22;61553;48.994;8.940;2023-05-19T05:59:03;16.40;94.70
32322;DHT22;61553;48.994;8.940;2023-05-19T06:01:30;18.10;87.20
32322;DHT22;61553;48.994;8.940;2023-05-19T06:03:56;19.60;76.70
32322;DHT22;61553;48.994;8.940;2023-05-19T06:06:21;20.80;70.30
32322;DHT22;61553;48.994;8.940;2023-05-19T06:08:47;21.50;64.30
32322;DHT22;61553;48.994;8.940;2023-05-19T06:11:13;21.50;63.50
32322;DHT22;61553;48.994;8.940;2023-05-19T06:13:38;21.00;63.40
32322;DHT22;61553;48.994;8.940;2023-05-19T06:16:07;21.30;61.40
32322;DHT22;61553;48.994;8.940;2023-05-19T06:18:33;22.10;58.70
32322;DHT22;61553;48.994;8.940;2023-05-19T06:20:59;23.30;55.80
32322;DHT22;61553;48.994;8.940;2023-05-19T06:23:26;24.20;53.60
32322;DHT22;61553;48.994;8.940;2023-05-19T06:25:53;25.20;51.00
32322;DHT22;61553;48.994;8.940;2023-05-19T06:28:19;24.90;50.60
32322;DHT22;61553;48.994;8.940;2023-05-19T06:30:44;26.10;49.10
32322;DHT22;61553;48.994;8.940;2023-05-19T06:33:10;26.10;47.70
32322;DHT22;61553;48.994;8.940;2023-05-19T06:35:36;25.80;47.80
32322;DHT22;61553;48.994;8.940;2023-05-19T06:38:02;26.90;46.00
32322;DHT22;61553;48.994;8.940;2023-05-19T06:40:27;27.10;45.80
32322;DHT22;61553;48.994;8.940;2023-05-19T06:42:53;27.30;45.20
32322;DHT22;61553;48.994;8.940;2023-05-19T06:45:18;27.20;44.60
32322;DHT22;61553;48.994;8.940;2023-05-19T06:47:47;26.80;44.90
32322;DHT22;61553;48.994;8.940;2023-05-19T06:50:12;26.70;44.80
32322;DHT22;61553;48.994;8.940;2023-05-19T06:52:38;27.50;44.30
32322;DHT22;61553;48.994;8.940;2023-05-19T06:55:04;27.30;44.40
32322;DHT22;61553;48.994;8.940;2023-05-19T06:57:30;26.30;44.80
32322;DHT22;61553;48.994;8.940;2023-05-19T06:59:56;25.80;45.60
32322;DHT22;61553;48.994;8.940;2023-05-19T07:02:21;24.60;47.30
32322;DHT22;61553;48.994;8.940;2023-05-19T07:04:47;24.70;47.30
32322;DHT22;61553;48.994;8.940;2023-05-19T07:07:12;24.70;47.40
32322;DHT22;61553;48.994;8.940;2023-05-19T07:09:38;25.30;46.30
32322;DHT22;61553;48.994;8.940;2023-05-19T07:12:04;25.70;45.50
32322;DHT22;61553;48.994;8.940;2023-05-19T07:14:30;26.90;44.70
32322;DHT22;61553;48.994;8.940;2023-05-19T07:16:56;27.80;43.20
32322;DHT22;61553;48.994;8.940;2023-05-19T07:19:22;28.60;42.30
32322;DHT22;61553;48.994;8.940;2023-05-19T07:21:48;29.20;42.10
32322;DHT22;61553;48.994;8.940;2023-05-19T07:24:14;29.00;41.70
32322;DHT22;61553;48.994;8.940;2023-05-19T07:26:39;29.20;41.20
32322;DHT22;61553;48.994;8.940;2023-05-19T07:29:05;28.20;42.10
32322;DHT22;61553;48.994;8.940;2023-05-19T07:31:31;27.70;42.70
32322;DHT22;61553;48.994;8.940;2023-05-19T07:33:57;26.70;43.50
32322;DHT22;61553;48.994;8.940;2023-05-19T07:36:23;25.70;44.40
32322;DHT22;61553;48.994;8.940;2023-05-19T07:38:48;25.30;45.70
32322;DHT22;61553;48.994;8.940;2023-05-19T07:41:14;25.10;45.70
32322;DHT22;61553;48.994;8.940;2023-05-19T07:43:39;24.90;45.70
32322;DHT22;61553;48.994;8.940;2023-05-19T07:46:05;24.70;46.30
32322;DHT22;61553;48.994;8.940;2023-05-19T07:48:31;24.40;46.90
32322;DHT22;61553;48.994;8.940;2023-05-19T07:50:57;24.90;46.50
32322;DHT22;61553;48.994;8.940;2023-05-19T07:53:23;25.40;45.80
32322;DHT22;61553;48.994;8.940;2023-05-19T07:55:48;25.80;45.10
32322;DHT22;61553;48.994;8.940;2023-05-19T07:58:14;25.60;45.10
32322;DHT22;61553;48.994;8.940;2023-05-19T08:00:40;25.90;44.80
32322;DHT22;61553;48.994;8.940;2023-05-19T08:03:08;25.70;44.90
32322;DHT22;61553;48.994;8.940;2023-05-19T08:05:34;26.30;44.40
32322;DHT22;61553;48.994;8.940;2023-05-19T08:08:00;25.80;44.80
32322;DHT22;61553;48.994;8.940;2023-05-19T08:10:26;25.40;44.70
32322;DHT22;61553;48.994;8.940;2023-05-19T08:12:52;24.70;46.20
32322;DHT22;61553;48.994;8.940;2023-05-19T08:15:17;24.80;46.20
32322;DHT22;61553;48.994;8.940;2023-05-19T08:17:44;24.50;46.90
32322;DHT22;61553;48.994;8.940;2023-05-19T08:20:09;24.20;47.20
32322;DHT22;61553;48.994;8.940;2023-05-19T08:22:38;24.20;47.50
32322;DHT22;61553;48.994;8.940;2023-05-19T08:25:05;23.70;47.60
32322;DHT22;61553;48.994;8.940;2023-05-19T08:27:32;23.10;48.70
32322;DHT22;61553;48.994;8.940;2023-05-19T08:29:58;23.10;49.10
32322;DHT22;61553;48.994;8.940;2023-05-19T08:32:23;22.90;49.10
32322;DHT22;61553;48.994;8.940;2023-05-19T08:34:49;22.10;50.50
32322;DHT22;61553;48.994;8.940;2023-05-19T08:37:15;21.40;52.00
32322;DHT22;61553;48.994;8.940;2023-05-19T08:39:40;20.90;53.00
32322;DHT22;61553;48.994;8.940;2023-05-19T08:42:06;20.50;54.10
32322;DHT22;61553;48.994;8.940;2023-05-19T08:44:37;20.50;54.30
32322;DHT22;61553;48.994;8.940;2023-05-19T08:47:04;20.30;54.90
32322;DHT22;61553;48.994;8.940;2023-05-19T08:49:32;20.00;55.00
32322;DHT22;61553;48.994;8.940;2023-05-19T08:52:08;20.00;55.50
32322;DHT22;61553;48.994;8.940;2023-05-19T08:54:59;19.90;55.70
32322;DHT22;61553;48.994;8.940;2023-05-19T08:57:27;19.60;56.70
32322;DHT22;61553;48.994;8.940;2023-05-19T08:59:53;19.60;56.70
32322;DHT22;61553;48.994;8.940;2023-05-19T09:02:21;19.20;56.80
32322;DHT22;61553;48.994;8.940;2023-05-19T09:04:47;19.00;58.00
32322;DHT22;61553;48.994;8.940;2023-05-19T09:07:14;18.90;58.40
32322;DHT22;61553;48.994;8.940;2023-05-19T09:09:40;19.20;57.90
32322;DHT22;61553;48.994;8.940;2023-05-19T09:12:11;19.50;57.50
32322;DHT22;61553;48.994;8.940;2023-05-19T09:14:38;19.50;57.20
32322;DHT22;61553;48.994;8.940;2023-05-19T09:17:04;19.60;57.50
32322;DHT22;61553;48.994;8.940;2023-05-19T09:19:30;19.90;57.30
32322;DHT22;61553;48.994;8.940;2023-05-19T09:22:00;20.00;57.10
32322;DHT22;61553;48.994;8.940;2023-05-19T09:24:27;20.10;55.80
32322;DHT22;61553;48.994;8.940;2023-05-19T09:26:57;20.50;56.10
32322;DHT22;61553;48.994;8.940;2023-05-19T09:29:23;20.40;55.50
32322;DHT22;61553;48.994;8.940;2023-05-19T09:31:52;20.40;55.90
32322;DHT22;61553;48.994;8.940;2023-05-19T09:34:19;20.80;56.40
32322;DHT22;61553;48.994;8.940;2023-05-19T09:36:48;20.90;55.90
32322;DHT22;61553;48.994;8.940;2023-05-19T09:39:18;21.00;54.50
32322;DHT22;61553;48.994;8.940;2023-05-19T09:41:44;21.30;54.60
32322;DHT22;61553;48.994;8.940;2023-05-19T09:46:53;21.30;54.70
32322;DHT22;61553;48.994;8.940;2023-05-19T09:49:24;21.20;54.70
32322;DHT22;61553;48.994;8.940;2023-05-19T09:51:57;20.80;56.20
32322;DHT22;61553;48.994;8.940;2023-05-19T09:54:24;20.80;56.50
32322;DHT22;61553;48.994;8.940;2023-05-19T09:56:57;20.80;56.00
32322;DHT22;61553;48.994;8.940;2023-05-19T09:59:26;20.70;57.00
32322;DHT22;61553;48.994;8.940;2023-05-19T10:01:54;20.60;56.30
32322;DHT22;61553;48.994;8.940;2023-05-19T10:04:24;20.30;56.60
32322;DHT22;61553;48.994;8.940;2023-05-19T10:06:51;20.50;56.60
32322;DHT22;61553;48.994;8.940;2023-05-19T10:09:23;20.20;57.40
32322;DHT22;61553;48.994;8.940;2023-05-19T10:11:54;20.60;56.50
32322;DHT22;61553;48.994;8.940;2023-05-19T10:14:28;20.10;56.70
32322;DHT22;61553;48.994;8.940;2023-05-19T10:16:57;19.50;57.60
32322;DHT22;61553;48.994;8.940;2023-05-19T10:19:25;19.70;59.10
32322;DHT22;61553;48.994;8.940;2023-05-19T10:21:52;19.30;58.90
32322;DHT22;61553;48.994;8.940;2023-05-19T10:24:18;19.20;58.80
32322;DHT22;61553;48.994;8.940;2023-05-19T10:26:52;19.30;59.70
32322;DHT22;61553;48.994;8.940;2023-05-19T10:29:32;19.20;60.40
32322;DHT22;61553;48.994;8.940;2023-05-19T10:32:03;19.30;59.60
32322;DHT22;61553;48.994;8.940;2023-05-19T10:37:36;19.10;59.20
32322;DHT22;61553;48.994;8.940;2023-05-19T10:40:11;18.90;60.30
32322;DHT22;61553;48.994;8.940;2023-05-19T10:45:16;19.10;60.20
32322;DHT22;61553;48.994;8.940;2023-05-19T10:47:43;19.40;59.60
32322;DHT22;61553;48.994;8.940;2023-05-19T10:50:09;19.40;58.30
32322;DHT22;61553;48.994;8.940;2023-05-19T10:52:39;19.50;59.00
32322;DHT22;61553;48.994;8.940;2023-05-19T10:55:07;19.80;58.70
32322;DHT22;61553;48.994;8.940;2023-05-19T10:57:34;20.10;58.30
32322;DHT22;61553;48.994;8.940;2023-05-19T11:00:27;20.20;57.90
32322;DHT22;61553;48.994;8.940;2023-05-19T11:02:53;20.10;57.80
32322;DHT22;61553;48.994;8.940;2023-05-19T11:05:35;20.20;57.10
32322;DHT22;61553;48.994;8.940;2023-05-19T11:08:01;20.30;57.40
32322;DHT22;61553;48.994;8.940;2023-05-19T11:10:30;20.20;57.80
32322;DHT22;61553;48.994;8.940;2023-05-19T11:12:56;20.10;58.10
32322;DHT22;61553;48.994;8.940;2023-05-19T11:15:25;20.10;58.00
32322;DHT22;61553;48.994;8.940;2023-05-19T11:17:52;19.80;58.00
32322;DHT22;61553;48.994;8.940;2023-05-19T11:20:25;19.60;58.60
32322;DHT22;61553;48.994;8.940;2023-05-19T11:23:08;19.50;59.60
32322;DHT22;61553;48.994;8.940;2023-05-19T11:25:44;19.50;59.00
32322;DHT22;61553;48.994;8.940;2023-05-19T11:28:32;19.50;59.40
32322;DHT22;61553;48.994;8.940;2023-05-19T11:30:59;19.50;59.40
32322;DHT22;61553;48.994;8.940;2023-05-19T11:33:26;19.20;60.10
32322;DHT22;61553;48.994;8.940;2023-05-19T11:35:54;18.90;60.30
32322;DHT22;61553;48.994;8.940;2023-05-19T11:38:22;18.90;60.90
32322;DHT22;61553;48.994;8.940;2023-05-19T11:40:48;18.90;61.60
32322;DHT22;61553;48.994;8.940;2023-05-19T11:43:17;19.00;61.70
32322;DHT22;61553;48.994;8.940;2023-05-19T11:45:43;19.10;60.70
32322;DHT22;61553;48.994;8.940;2023-05-19T11:48:12;19.10;60.80
32322;DHT22;61553;48.994;8.940;2023-05-19T11:50:40;19.00;60.70
32322;DHT22;61553;48.994;8.940;2023-05-19T11:53:06;19.00;60.80
32322;DHT22;61553;48.994;8.940;2023-05-19T11:55:32;19.20;60.40
32322;DHT22;61553;48.994;8.940;2023-05-19T11:57:59;19.30;60.30
32322;DHT22;61553;48.994;8.940;2023-05-19T12:00:25;19.30;60.40
32322;DHT22;61553;48.994;8.940;2023-05-19T12:02:51;19.00;60.50
32322;DHT22;61553;48.994;8.940;2023-05-19T12:05:21;18.90;60.40
32322;DHT22;61553;48.994;8.940;2023-05-19T12:07:47;18.50;62.00
32322;DHT22;61553;48.994;8.940;2023-05-19T12:10:27;18.40;63.20
32322;DHT22;61553;48.994;8.940;2023-05-19T12:12:53;18.20;62.90
32322;DHT22;61553;48.994;8.940;2023-05-19T12:15:20;18.20;63.60
32322;DHT22;61553;48.994;8.940;2023-05-19T12:17:57;18.10;63.50
32322;DHT22;61553;48.994;8.940;2023-05-19T12:20:24;17.90;65.20
32322;DHT22;61553;48.994;8.940;2023-05-19T12:22:50;17.70;65.40
32322;DHT22;61553;48.994;8.940;2023-05-19T12:25:17;17.70;66.00
32322;DHT22;61553;48.994;8.940;2023-05-19T12:27:43;17.60;65.50
32322;DHT22;61553;48.994;8.940;2023-05-19T12:30:09;17.40;65.50
32322;DHT22;61553;48.994;8.940;2023-05-19T12:32:36;17.50;66.00
32322;DHT22;61553;48.994;8.940;2023-05-19T12:35:02;17.30;65.90
32322;DHT22;61553;48.994;8.940;2023-05-19T12:37:30;17.30;66.30
32322;DHT22;61553;48.994;8.940;2023-05-19T12:39:56;17.40;66.20
32322;DHT22;61553;48.994;8.940;2023-05-19T12:42:22;17.40;66.70
32322;DHT22;61553;48.994;8.940;2023-05-19T12:44:49;17.60;66.00
32322;DHT22;61553;48.994;8.940;2023-05-19T12:47:18;17.70;66.00
32322;DHT22;61553;48.994;8.940;2023-05-19T12:52:26;17.90;65.40
32322;DHT22;61553;48.994;8.940;2023-05-19T12:55:01;18.00;65.40
32322;DHT22;61553;48.994;8.940;2023-05-19T12:57:29;18.10;65.50
32322;DHT22;61553;48.994;8.940;2023-05-19T13:00:02;17.80;65.80
32322;DHT22;61553;48.994;8.940;2023-05-19T13:02:33;17.60;65.90
32322;DHT22;61553;48.994;8.940;2023-05-19T13:04:58;17.50;66.30
32322;DHT22;61553;48.994;8.940;2023-05-19T13:07:24;17.40;66.60
32322;DHT22;61553;48.994;8.940;2023-05-19T13:09:50;17.20;66.90
32322;DHT22;61553;48.994;8.940;2023-05-19T13:12:16;17.10;67.10
32322;DHT22;61553;48.994;8.940;2023-05-19T13:14:41;17.00;67.60
32322;DHT22;61553;48.994;8.940;2023-05-19T13:17:08;17.00;68.60
32322;DHT22;61553;48.994;8.940;2023-05-19T13:19:33;17.10;68.90
32322;DHT22;61553;48.994;8.940;2023-05-19T13:21:59;17.20;69.00
32322;DHT22;61553;48.994;8.940;2023-05-19T13:24:25;17.20;68.70
32322;DHT22;61553;48.994;8.940;2023-05-19T13:26:51;17.20;68.10
32322;DHT22;61553;48.994;8.940;2023-05-19T13:29:16;17.10;68.60
32322;DHT22;61553;48.994;8.940;2023-05-19T13:31:42;17.20;68.60
32322;DHT22;61553;48.994;8.940;2023-05-19T13:34:07;17.40;68.50
32322;DHT22;61553;48.994;8.940;2023-05-19T13:36:33;17.50;67.80
32322;DHT22;61553;48.994;8.940;2023-05-19T13:38:59;17.50;67.60
32322;DHT22;61553;48.994;8.940;2023-05-19T13:41:25;17.50;67.70
32322;DHT22;61553;48.994;8.940;2023-05-19T13:43:51;17.30;67.30
32322;DHT22;61553;48.994;8.940;2023-05-19T13:46:18;17.30;68.00
32322;DHT22;61553;48.994;8.940;2023-05-19T13:48:43;17.50;68.50
32322;DHT22;61553;48.994;8.940;2023-05-19T13:51:09;17.50;68.00
32322;DHT22;61553;48.994;8.940;2023-05-19T13:53:34;17.40;67.50
32322;DHT22;61553;48.994;8.940;2023-05-19T13:56:01;17.30;67.80
32322;DHT22;61553;48.994;8.940;2023-05-19T13:58:27;17.30;67.90
32322;DHT22;61553;48.994;8.940;2023-05-19T14:00:53;17.10;68.10
32322;DHT22;61553;48.994;8.940;2023-05-19T14:03:21;17.20;68.60
32322;DHT22;61553;48.994;8.940;2023-05-19T14:05:47;17.20;69.20
32322;DHT22;61553;48.994;8.940;2023-05-19T14:08:14;17.20;68.70
32322;DHT22;61553;48.994;8.940;2023-05-19T14:10:40;17.40;68.20
32322;DHT22;61553;48.994;8.940;2023-05-19T14:13:06;17.70;67.80
32322;DHT22;61553;48.994;8.940;2023-05-19T14:15:34;17.80;67.30
32322;DHT22;61553;48.994;8.940;2023-05-19T14:18:02;18.00;66.40
32322;DHT22;61553;48.994;8.940;2023-05-19T14:20:28;18.00;66.60
32322;DHT22;61553;48.994;8.940;2023-05-19T14:22:53;17.90;67.10
32322;DHT22;61553;48.994;8.940;2023-05-19T14:25:20;17.60;67.10
32322;DHT22;61553;48.994;8.940;2023-05-19T14:27:45;17.50;68.10
32322;DHT22;61553;48.994;8.940;2023-05-19T14:30:11;17.30;68.40
32322;DHT22;61553;48.994;8.940;2023-05-19T14:32:37;17.10;68.70
32322;DHT22;61553;48.994;8.940;2023-05-19T14:35:03;17.00;69.20
32322;DHT22;61553;48.994;8.940;2023-05-19T14:37:29;17.00;69.60
32322;DHT22;61553;48.994;8.940;2023-05-19T14:39:57;16.90;70.10
32322;DHT22;61553;48.994;8.940;2023-05-19T14:42:22;16.90;70.30
32322;DHT22;61553;48.994;8.940;2023-05-19T14:44:48;16.90;70.00
32322;DHT22;61553;48.994;8.940;2023-05-19T14:47:14;16.70;70.40
32322;DHT22;61553;48.994;8.940;2023-05-19T14:49:39;16.90;70.80
32322;DHT22;61553;48.994;8.940;2023-05-19T14:52:05;16.90;70.80
32322;DHT22;61553;48.994;8.940;2023-05-19T14:54:31;16.90;71.00
32322;DHT22;61553;48.994;8.940;2023-05-19T14:56:56;17.00;70.60
32322;DHT22;61553;48.994;8.940;2023-05-19T14:59:22;17.10;70.90
32322;DHT22;61553;48.994;8.940;2023-05-19T15:01:47;17.10;70.40
32322;DHT22;61553;48.994;8.940;2023-05-19T15:04:13;17.30;69.80
32322;DHT22;61553;48.994;8.940;2023-05-19T15:06:39;17.60;69.50
32322;DHT22;61553;48.994;8.940;2023-05-19T15:09:04;17.80;68.10
32322;DHT22;61553;48.994;8.940;2023-05-19T15:11:30;17.80;68.30
32322;DHT22;61553;48.994;8.940;2023-05-19T15:13:56;18.00;68.20
32322;DHT22;61553;48.994;8.940;2023-05-19T15:16:22;18.10;68.00
32322;DHT22;61553;48.994;8.940;2023-05-19T15:18:47;18.20;68.10
32322;DHT22;61553;48.994;8.940;2023-05-19T15:21:15;18.40;67.70
32322;DHT22;61553;48.994;8.940;2023-05-19T15:23:41;18.50;67.00
32322;DHT22;61553;48.994;8.940;2023-05-19T15:26:06;18.60;67.30
32322;DHT22;61553;48.994;8.940;2023-05-19T15:28:32;18.70;67.10
32322;DHT22;61553;48.994;8.940;2023-05-19T15:30:58;18.90;66.90
32322;DHT22;61553;48.994;8.940;2023-05-19T15:33:24;19.00;66.00
32322;DHT22;61553;48.994;8.940;2023-05-19T15:35:49;19.00;65.80
32322;DHT22;61553;48.994;8.940;2023-05-19T15:38:17;19.00;66.10
32322;DHT22;61553;48.994;8.940;2023-05-19T15:40:43;19.00;65.90
32322;DHT22;61553;48.994;8.940;2023-05-19T15:43:08;18.90;66.20
32322;DHT22;61553;48.994;8.940;2023-05-19T15:45:34;19.20;65.50
32322;DHT22;61553;48.994;8.940;2023-05-19T15:48:00;19.10;66.00
32322;DHT22;61553;48.994;8.940;2023-05-19T15:50:26;19.00;65.40
32322;DHT22;61553;48.994;8.940;2023-05-19T15:52:51;19.10;66.00
32322;DHT22;61553;48.994;8.940;2023-05-19T15:55:17;19.00;65.90
32322;DHT22;61553;48.994;8.940;2023-05-19T15:57:43;19.00;66.40